This is the latest recevied weather packets stored in our database for station/object TAPIOLA. If no packets are shown the sender has not sent any weather packets the latest 10 day(s).
| Time | Temp. | Humidity | Pressure | Rain* | Wind** | Luminosity | Snow |
|---|---|---|---|---|---|---|---|
| 1777885631 | 11.11° C | 63% | 1003.8 hPa | 0 mm | - | - | - |
| 1777884431 | 10.56° C | 60% | 1004.1 hPa | 0 mm | - | - | - |
| 1777883231 | 11.67° C | 51% | 1004.2 hPa | 0 mm | - | - | - |
| 1777882031 | 11.67° C | 49% | 1004.2 hPa | 0 mm | - | - | - |
| 1777880831 | 11.67° C | 48% | 1004.3 hPa | 0 mm | - | - | - |
| 1777879631 | 11.11° C | 48% | 1004 hPa | 0 mm | - | - | - |
| 1777878430 | 11.67° C | 47% | 1004.1 hPa | 0 mm | - | - | - |
| 1777877231 | 11.67° C | 49% | 1004.2 hPa | 0 mm | - | - | - |
| 1777876030 | 11.67° C | 48% | 1004.4 hPa | 0 mm | - | - | - |
| 1777874830 | 11.67° C | 46% | 1004.7 hPa | 0 mm | - | - | - |
| 1777873630 | 11.11° C | 46% | 1005 hPa | 0 mm | - | - | - |
| 1777872431 | 10° C | 48% | 1005 hPa | 0 mm | - | - | - |
| 1777871230 | 9.44° C | 50% | 1005.3 hPa | 0 mm | - | - | - |
| 1777870030 | 8.89° C | 50% | 1005.4 hPa | 0 mm | - | - | - |
| 1777868830 | 8.33° C | 56% | 1005.6 hPa | 0 mm | - | - | - |
| 1777867630 | 7.78° C | 57% | 1005.8 hPa | 0 mm | - | - | - |
| 1777866430 | 6.67° C | 68% | 1005.8 hPa | 0 mm | - | - | - |
| 1777865231 | 6.11° C | 68% | 1005.9 hPa | 0 mm | - | - | - |
| 1777864030 | 6.11° C | 66% | 1006.1 hPa | 0 mm | - | - | - |
| 1777862830 | 6.67° C | 64% | 1006 hPa | 0 mm | - | - | - |
| 1777861630 | 7.22° C | 58% | 1006.2 hPa | 0 mm | - | - | - |
| 1777860430 | 7.78° C | 61% | 1006.3 hPa | 0 mm | - | - | - |
| 1777859230 | 8.33° C | 58% | 1006.5 hPa | 0 mm | - | - | - |
| 1777858030 | 8.33° C | 60% | 1006.6 hPa | 0 mm | - | - | - |
| 1777856830 | 7.78° C | 70% | 1006.7 hPa | 0 mm | - | - | - |
* Rain latest hour (hover to see other rain measurements)
** Current wind speed in m/s (hover to see current wind gust speed)